Time;durP1;ratioP1;P1;durP2;ratioP2;P2;SDS_P1;SDS_P2;PMS_P1;PMS_P2;Temp;Humidity;BMP_temperature;BMP_pressure;BME280_temperature;BME280_humidity;BME280_pressure;Samples;Min_cycle;Max_cycle;Signal;HPM_P1;HPM_P2
2023/12/31 00:00:36;;;;;;;;;;;;;;;8.33;100.00;99860.22;5021063;28;19925;-69
2023/12/31 00:03:04;;;;;;;;;;;;;;;8.32;100.00;99863.78;5025658;28;19925;-68
2023/12/31 00:05:33;;;;;;;;;;;;;;;8.32;100.00;99854.09;5032925;28;20385;-69
2023/12/31 00:08:00;;;;;;;;;;;;;;;8.25;100.00;99835.94;5032587;28;19932;-68
2023/12/31 00:10:29;;;;;;;;;;;;;;;8.37;100.00;99843.31;5030445;28;20016;-68
2023/12/31 00:12:57;;;;;;;;;;;;;;;8.41;100.00;99834.31;5022842;28;19933;-66
2023/12/31 00:15:24;;;;;;;;;;;;;;;8.43;100.00;99837.75;5032879;28;19975;-67
2023/12/31 00:17:52;;;;;;;;;;;;;;;8.44;100.00;99832.41;5033339;28;20289;-68
2023/12/31 00:20:19;;;;;;;;;;;;;;;8.46;100.00;99824.44;5026030;28;20032;-64
2023/12/31 00:22:47;;;;;;;;;;;;;;;8.47;100.00;99812.09;5027997;28;19935;-68
2023/12/31 00:25:14;;;;;;;;;;;;;;;8.43;100.00;99814.00;5028911;28;19971;-67
2023/12/31 00:27:43;;;;;;;;;;;;;;;8.38;100.00;99810.72;5029857;28;20408;-67
2023/12/31 00:30:12;;;;;;;;;;;;;;;8.36;100.00;99812.56;5025742;28;20082;-66
2023/12/31 00:32:41;;;;;;;;;;;;;;;8.29;100.00;99800.59;5043789;28;20454;-67
2023/12/31 00:35:09;;;;;;;;;;;;;;;8.23;100.00;99801.72;5030980;28;19925;-67
2023/12/31 00:37:36;;;;;;;;;;;;;;;8.17;100.00;99794.09;5032259;28;19952;-66
2023/12/31 00:40:04;;;;;;;;;;;;;;;8.08;100.00;99792.75;5030416;28;19953;-67
2023/12/31 00:42:32;;;;;;;;;;;;;;;8.05;100.00;99792.88;5024333;28;19927;-68
2023/12/31 00:45:01;;;;;;;;;;;;;;;7.98;100.00;99780.91;5035851;28;19925;-67
2023/12/31 00:47:28;;;;;;;;;;;;;;;7.92;100.00;99781.19;5033257;28;20016;-68
2023/12/31 00:49:56;;;;;;;;;;;;;;;7.84;100.00;99780.69;5028289;28;19971;-68
2023/12/31 00:52:24;;;;;;;;;;;;;;;7.77;100.00;99781.88;5020618;28;19930;-67
2023/12/31 00:54:52;;;;;;;;;;;;;;;7.69;100.00;99776.13;5022172;28;20398;-68
2023/12/31 00:57:20;;;;;;;;;;;;;;;7.64;100.00;99765.78;5032989;28;19931;-67
2023/12/31 00:59:47;;;;;;;;;;;;;;;7.59;100.00;99765.13;5033554;28;20007;-67
2023/12/31 01:02:16;;;;;;;;;;;;;;;7.54;100.00;99761.00;5023642;28;20011;-66
2023/12/31 01:04:44;;;;;;;;;;;;;;;7.44;100.00;99754.41;5032377;28;19972;-68
2023/12/31 01:07:13;;;;;;;;;;;;;;;7.35;100.00;99755.69;5031459;28;19924;-68
2023/12/31 01:09:40;;;;;;;;;;;;;;;7.28;100.00;99756.84;5025084;28;19929;-67
2023/12/31 01:12:08;;;;;;;;;;;;;;;7.20;100.00;99749.31;5024615;28;20341;-66
2023/12/31 01:14:35;;;;;;;;;;;;;;;7.16;100.00;99741.59;5031670;28;19937;-67
2023/12/31 01:17:04;;;;;;;;;;;;;;;7.06;100.00;99745.56;5035817;28;19921;-69
2023/12/31 01:19:33;;;;;;;;;;;;;;;7.05;100.00;99744.69;5029981;28;19929;-66
2023/12/31 01:22:01;;;;;;;;;;;;;;;6.99;100.00;99740.53;5032834;28;19924;-69
2023/12/31 01:24:30;;;;;;;;;;;;;;;6.90;100.00;99748.84;5029316;28;19925;-67
2023/12/31 01:26:57;;;;;;;;;;;;;;;6.72;100.00;99720.66;5031704;28;19936;-68
2023/12/31 01:29:25;;;;;;;;;;;;;;;6.78;100.00;99741.44;5034192;28;19920;-67
2023/12/31 01:31:54;;;;;;;;;;;;;;;6.75;100.00;99738.97;5028545;28;19921;-66
2023/12/31 01:34:21;;;;;;;;;;;;;;;6.68;100.00;99729.59;5032269;28;19921;-67
2023/12/31 01:36:50;;;;;;;;;;;;;;;6.66;100.00;99719.13;5025629;28;19921;-68
2023/12/31 01:39:17;;;;;;;;;;;;;;;6.69;100.00;99720.78;5033672;28;19937;-69
2023/12/31 01:41:45;;;;;;;;;;;;;;;6.60;100.00;99722.03;5022081;28;20487;-68
2023/12/31 01:44:13;;;;;;;;;;;;;;;6.48;100.00;99708.50;5026627;28;19924;-68
2023/12/31 01:46:43;;;;;;;;;;;;;;;6.39;100.00;99706.28;5031056;28;19925;-70
2023/12/31 01:49:11;;;;;;;;;;;;;;;6.30;100.00;99712.75;5032037;28;19924;-67
2023/12/31 01:51:38;;;;;;;;;;;;;;;6.29;100.00;99711.06;5017684;28;19921;-66
2023/12/31 01:54:08;;;;;;;;;;;;;;;6.28;100.00;99704.09;5031204;28;19987;-66
2023/12/31 01:56:37;;;;;;;;;;;;;;;6.27;100.00;99697.97;5029990;28;19925;-65
2023/12/31 01:59:05;;;;;;;;;;;;;;;6.20;100.00;99688.59;5052407;28;20024;-67
2023/12/31 02:01:34;;;;;;;;;;;;;;;6.20;100.00;99693.88;5024407;28;19936;-67
2023/12/31 02:04:02;;;;;;;;;;;;;;;6.14;100.00;99686.22;5031007;28;20230;-68
2023/12/31 02:06:29;;;;;;;;;;;;;;;6.10;100.00;99683.78;5031165;28;20452;-68
2023/12/31 02:08:57;;;;;;;;;;;;;;;6.11;100.00;99678.47;5035697;28;19929;-67
2023/12/31 02:11:26;;;;;;;;;;;;;;;6.06;100.00;99683.06;5035414;28;20386;-67
2023/12/31 02:13:53;;;;;;;;;;;;;;;6.02;100.00;99685.84;5026783;28;20000;-67
2023/12/31 02:16:22;;;;;;;;;;;;;;;5.96;100.00;99679.94;5030714;28;19926;-68
2023/12/31 02:18:49;;;;;;;;;;;;;;;5.94;100.00;99684.41;5027147;28;19980;-67
2023/12/31 02:21:17;;;;;;;;;;;;;;;5.91;100.00;99689.78;5026347;28;20008;-68
2023/12/31 02:23:45;;;;;;;;;;;;;;;5.86;100.00;99680.31;5031149;28;20029;-66
2023/12/31 02:26:14;;;;;;;;;;;;;;;5.81;100.00;99677.88;5031783;28;19987;-66
2023/12/31 02:28:41;;;;;;;;;;;;;;;5.85;100.00;99666.31;5027110;28;19932;-67
2023/12/31 02:31:09;;;;;;;;;;;;;;;5.85;100.00;99647.94;5021168;28;19925;-67
2023/12/31 02:33:37;;;;;;;;;;;;;;;5.81;100.00;99635.00;5037195;28;19922;-66
2023/12/31 02:36:05;;;;;;;;;;;;;;;5.73;100.00;99619.53;5031516;28;19933;-66
2023/12/31 02:38:32;;;;;;;;;;;;;;;5.67;100.00;99619.75;5036169;28;20490;-66
2023/12/31 02:41:00;;;;;;;;;;;;;;;5.62;100.00;99609.44;5032506;28;19924;-66
2023/12/31 02:43:29;;;;;;;;;;;;;;;5.59;100.00;99598.19;5032973;28;19979;-68
2023/12/31 02:45:57;;;;;;;;;;;;;;;5.60;100.00;99602.53;5035993;28;20470;-67
2023/12/31 02:48:24;;;;;;;;;;;;;;;5.62;100.00;99595.47;5036062;28;19925;-65
2023/12/31 02:50:52;;;;;;;;;;;;;;;5.69;100.00;99578.53;5031505;28;19928;-67
2023/12/31 02:53:19;;;;;;;;;;;;;;;5.69;100.00;99570.63;5030327;28;19921;-67
2023/12/31 02:55:47;;;;;;;;;;;;;;;5.70;100.00;99569.72;5037368;28;19932;-67
2023/12/31 02:58:15;;;;;;;;;;;;;;;5.67;100.00;99572.47;5037333;28;19921;-67
2023/12/31 03:00:44;;;;;;;;;;;;;;;5.64;100.00;99570.00;5029179;28;19929;-66
2023/12/31 03:03:11;;;;;;;;;;;;;;;5.63;100.00;99573.53;5022983;28;20016;-67
2023/12/31 03:05:40;;;;;;;;;;;;;;;5.59;100.00;99572.78;5022871;28;19960;-67
2023/12/31 03:08:08;;;;;;;;;;;;;;;5.58;100.00;99572.84;5028861;28;19924;-69
2023/12/31 03:10:35;;;;;;;;;;;;;;;5.58;100.00;99575.47;5032441;28;19920;-68
2023/12/31 03:13:03;;;;;;;;;;;;;;;5.55;100.00;99570.34;5017374;28;19936;-67
2023/12/31 03:15:31;;;;;;;;;;;;;;;5.54;100.00;99579.13;5026953;28;20080;-68
2023/12/31 03:18:00;;;;;;;;;;;;;;;5.49;100.00;99587.22;5028074;28;19925;-67
2023/12/31 03:20:27;;;;;;;;;;;;;;;5.46;100.00;99575.97;5026308;28;19956;-70
2023/12/31 03:22:55;;;;;;;;;;;;;;;5.40;100.00;99582.31;5015358;28;20389;-68
2023/12/31 03:25:22;;;;;;;;;;;;;;;5.39;100.00;99562.22;5027110;28;20462;-67
2023/12/31 03:27:50;;;;;;;;;;;;;;;5.39;100.00;99564.84;5031135;28;19929;-69
2023/12/31 03:30:18;;;;;;;;;;;;;;;5.40;100.00;99555.19;5037543;28;19929;-67
2023/12/31 03:32:45;;;;;;;;;;;;;;;5.45;100.00;99538.34;5033837;28;19971;-67
2023/12/31 03:35:14;;;;;;;;;;;;;;;5.48;100.00;99542.63;5023100;28;19925;-68
2023/12/31 03:37:46;;;;;;;;;;;;;;;5.50;100.00;99548.69;5026148;28;19924;-68
2023/12/31 03:40:14;;;;;;;;;;;;;;;5.45;100.00;99558.50;5030526;28;19931;-68
2023/12/31 03:42:42;;;;;;;;;;;;;;;5.38;100.00;99557.88;5019331;28;19921;-67
2023/12/31 03:45:10;;;;;;;;;;;;;;;5.36;100.00;99551.81;5028107;28;19933;-67
2023/12/31 03:47:38;;;;;;;;;;;;;;;5.35;100.00;99544.03;5029765;28;20123;-67
2023/12/31 03:50:07;;;;;;;;;;;;;;;5.41;100.00;99541.16;5021657;28;19971;-68
2023/12/31 03:52:37;;;;;;;;;;;;;;;5.47;100.00;99527.78;5020314;28;19929;-67
2023/12/31 03:55:05;;;;;;;;;;;;;;;5.51;100.00;99511.00;5023453;28;20015;-69
2023/12/31 03:57:33;;;;;;;;;;;;;;;5.55;100.00;99513.41;5029729;28;19924;-67
2023/12/31 04:00:03;;;;;;;;;;;;;;;5.60;100.00;99500.97;5032811;28;20218;-67
2023/12/31 04:02:31;;;;;;;;;;;;;;;5.67;100.00;99503.34;5023200;28;19937;-66
2023/12/31 04:04:58;;;;;;;;;;;;;;;5.69;100.00;99491.00;5027656;28;19932;-67
2023/12/31 04:07:27;;;;;;;;;;;;;;;5.72;100.00;99494.34;5031979;28;19929;-69
2023/12/31 04:09:56;;;;;;;;;;;;;;;5.81;100.00;99490.50;5026984;28;19963;-67
2023/12/31 04:12:23;;;;;;;;;;;;;;;5.87;100.00;99484.97;5023531;28;20086;-66
2023/12/31 04:14:51;;;;;;;;;;;;;;;5.92;100.00;99477.78;5024796;28;20606;-68
2023/12/31 04:17:19;;;;;;;;;;;;;;;5.97;100.00;99479.31;5024802;28;19929;-67
2023/12/31 04:19:47;;;;;;;;;;;;;;;6.03;100.00;99474.69;5031293;28;19928;-67
2023/12/31 04:22:14;;;;;;;;;;;;;;;6.09;100.00;99477.91;5021468;28;19932;-67
2023/12/31 04:24:42;;;;;;;;;;;;;;;6.13;100.00;99469.00;5027035;28;20020;-67
2023/12/31 04:27:11;;;;;;;;;;;;;;;6.19;100.00;99470.47;5030601;28;19936;-66
2023/12/31 04:29:38;;;;;;;;;;;;;;;6.24;100.00;99466.75;5027829;28;19929;-68
2023/12/31 04:32:06;;;;;;;;;;;;;;;6.32;100.00;99471.63;5025398;28;19931;-67
2023/12/31 04:34:34;;;;;;;;;;;;;;;6.37;100.00;99456.53;5025184;28;19932;-68
2023/12/31 04:37:01;;;;;;;;;;;;;;;6.41;100.00;99452.84;5027751;28;20404;-68
2023/12/31 04:39:29;;;;;;;;;;;;;;;6.46;100.00;99453.47;5037471;28;19925;-67
2023/12/31 04:41:56;;;;;;;;;;;;;;;6.51;100.00;99451.50;5029034;28;19925;-67
2023/12/31 04:44:26;;;;;;;;;;;;;;;6.56;100.00;99441.63;5037680;28;19928;-69
2023/12/31 04:46:53;;;;;;;;;;;;;;;6.68;100.00;99441.06;5030509;28;19924;-68
2023/12/31 04:49:22;;;;;;;;;;;;;;;6.74;100.00;99429.41;5031586;28;20416;-68
2023/12/31 04:51:50;;;;;;;;;;;;;;;6.73;100.00;99430.31;5029055;28;20475;-69
2023/12/31 04:54:17;;;;;;;;;;;;;;;6.71;100.00;99426.91;5027445;28;19931;-68
2023/12/31 04:56:45;;;;;;;;;;;;;;;6.70;100.00;99422.56;5037226;28;19986;-68
2023/12/31 04:59:13;;;;;;;;;;;;;;;6.70;100.00;99427.84;5034799;28;20011;-68
2023/12/31 05:01:42;;;;;;;;;;;;;;;6.71;100.00;99420.78;5026847;28;20003;-68
2023/12/31 05:04:09;;;;;;;;;;;;;;;6.69;100.00;99419.09;5023921;28;19940;-67
2023/12/31 05:06:37;;;;;;;;;;;;;;;6.68;100.00;99409.47;5029866;28;19936;-69
2023/12/31 05:09:08;;;;;;;;;;;;;;;6.65;100.00;99400.88;5033787;28;20300;-67
2023/12/31 05:11:34;;;;;;;;;;;;;;;6.62;100.00;99391.34;5033073;28;20011;-67
2023/12/31 05:14:02;;;;;;;;;;;;;;;6.62;100.00;99388.72;5024888;28;20060;-66
2023/12/31 05:16:31;;;;;;;;;;;;;;;6.71;100.00;99381.34;5029797;28;19924;-68
2023/12/31 05:19:01;;;;;;;;;;;;;;;6.71;100.00;99381.34;5031930;28;19947;-67
2023/12/31 05:21:28;;;;;;;;;;;;;;;6.67;100.00;99388.50;5029901;28;19931;-67
2023/12/31 05:23:56;;;;;;;;;;;;;;;6.63;100.00;99389.56;5021538;28;19932;-68
2023/12/31 05:26:23;;;;;;;;;;;;;;;6.63;100.00;99394.81;5037844;28;19974;-68
2023/12/31 05:28:52;;;;;;;;;;;;;;;6.58;100.00;99392.44;5034649;28;19920;-68
2023/12/31 05:31:20;;;;;;;;;;;;;;;6.51;100.00;99380.47;5033424;28;19925;-69
2023/12/31 05:33:47;;;;;;;;;;;;;;;6.47;100.00;99368.38;5023499;28;19931;-67
2023/12/31 05:36:16;;;;;;;;;;;;;;;6.44;100.00;99373.81;5029438;28;19927;-66
2023/12/31 05:38:44;;;;;;;;;;;;;;;6.39;100.00;99364.41;5026540;28;19930;-68
2023/12/31 05:41:11;;;;;;;;;;;;;;;6.32;100.00;99364.69;5032644;28;19982;-68
2023/12/31 05:43:39;;;;;;;;;;;;;;;6.30;100.00;99355.16;5023071;28;19960;-68
2023/12/31 05:46:06;;;;;;;;;;;;;;;6.29;100.00;99356.13;5032670;28;19921;-68
2023/12/31 05:48:34;;;;;;;;;;;;;;;6.27;100.00;99360.59;5031101;28;19932;-67
2023/12/31 05:51:02;;;;;;;;;;;;;;;6.24;100.00;99342.31;5022102;28;20007;-67
2023/12/31 05:53:33;;;;;;;;;;;;;;;6.23;100.00;99338.84;5028015;28;19929;-68
2023/12/31 05:56:01;;;;;;;;;;;;;;;6.20;100.00;99346.88;5027992;28;20447;-68
2023/12/31 05:58:29;;;;;;;;;;;;;;;6.19;100.00;99346.94;5027418;28;20595;-68
2023/12/31 06:00:58;;;;;;;;;;;;;;;6.16;100.00;99352.31;5029275;28;19928;-68
2023/12/31 06:03:25;;;;;;;;;;;;;;;6.18;100.00;99332.94;5026440;28;20416;-67
2023/12/31 06:05:53;;;;;;;;;;;;;;;6.19;100.00;99334.63;5027028;28;19928;-69
2023/12/31 06:08:20;;;;;;;;;;;;;;;6.23;100.00;99330.09;5029980;28;19931;-69
2023/12/31 06:10:49;;;;;;;;;;;;;;;6.26;100.00;99322.06;5027001;28;19956;-66
2023/12/31 06:13:17;;;;;;;;;;;;;;;6.30;100.00;99318.34;5018666;28;19932;-67
2023/12/31 06:15:45;;;;;;;;;;;;;;;6.30;100.00;99318.34;5027724;28;19960;-67
2023/12/31 06:18:12;;;;;;;;;;;;;;;6.29;100.00;99311.44;5032619;28;19932;-69
2023/12/31 06:20:40;;;;;;;;;;;;;;;6.25;100.00;99312.47;5030514;28;19925;-67
2023/12/31 06:23:07;;;;;;;;;;;;;;;6.20;100.00;99310.06;5023263;28;19921;-66
2023/12/31 06:25:35;;;;;;;;;;;;;;;6.16;100.00;99312.88;5033219;28;19925;-67
2023/12/31 06:28:05;;;;;;;;;;;;;;;6.12;100.00;99314.84;5030337;28;20059;-67
2023/12/31 06:30:32;;;;;;;;;;;;;;;6.10;100.00;99318.44;5029104;28;19932;-69
2023/12/31 06:33:00;;;;;;;;;;;;;;;6.07;100.00;99305.44;5025398;28;19935;-69
2023/12/31 06:35:28;;;;;;;;;;;;;;;6.03;100.00;99311.75;5029439;28;20611;-69
2023/12/31 06:37:55;;;;;;;;;;;;;;;6.02;100.00;99312.69;5034240;28;19986;-68
2023/12/31 06:40:23;;;;;;;;;;;;;;;6.02;100.00;99315.31;5033483;28;19931;-68
2023/12/31 06:42:50;;;;;;;;;;;;;;;6.00;100.00;99323.25;5028977;28;20393;-66
2023/12/31 06:45:19;;;;;;;;;;;;;;;5.99;100.00;99319.78;5030117;28;19925;-68
2023/12/31 06:47:47;;;;;;;;;;;;;;;5.97;100.00;99323.41;5027393;28;20027;-70
2023/12/31 06:50:15;;;;;;;;;;;;;;;5.93;100.00;99320.06;5032507;28;20039;-67
2023/12/31 06:52:43;;;;;;;;;;;;;;;5.91;100.00;99321.91;5029274;28;20421;-66
2023/12/31 06:55:11;;;;;;;;;;;;;;;5.90;100.00;99311.47;5026624;28;19990;-68
2023/12/31 06:57:39;;;;;;;;;;;;;;;5.91;100.00;99316.66;5032291;28;20381;-68
2023/12/31 07:00:07;;;;;;;;;;;;;;;5.96;100.00;99306.78;5028929;28;20388;-69
2023/12/31 07:02:37;;;;;;;;;;;;;;;5.95;100.00;99322.63;5031336;28;20352;-69
2023/12/31 07:05:05;;;;;;;;;;;;;;;5.95;100.00;99320.84;5020371;28;20397;-68
2023/12/31 07:07:33;;;;;;;;;;;;;;;5.98;100.00;99325.94;5032867;28;20023;-66
2023/12/31 07:10:03;;;;;;;;;;;;;;;6.03;100.00;99317.88;5033689;28;19927;-67
2023/12/31 07:12:31;;;;;;;;;;;;;;;6.04;100.00;99316.09;5033873;28;20355;-68
2023/12/31 07:14:58;;;;;;;;;;;;;;;6.04;100.00;99331.84;5028633;28;19929;-66
2023/12/31 07:17:26;;;;;;;;;;;;;;;6.03;100.00;99317.00;5035114;28;19932;-70
2023/12/31 07:19:58;;;;;;;;;;;;;;;6.05;100.00;99309.91;5036558;28;20155;-67
2023/12/31 07:22:26;;;;;;;;;;;;;;;6.09;100.00;99306.22;5029109;28;19928;-67
2023/12/31 07:24:53;;;;;;;;;;;;;;;6.09;100.00;99300.97;5023669;28;19948;-68
2023/12/31 07:27:21;;;;;;;;;;;;;;;6.08;100.00;99296.63;5036143;28;20313;-68
2023/12/31 07:29:48;;;;;;;;;;;;;;;6.14;100.00;99299.00;5044573;28;19925;-67
2023/12/31 07:32:16;;;;;;;;;;;;;;;6.16;100.00;99299.75;5028014;28;19929;-67
2023/12/31 07:34:43;;;;;;;;;;;;;;;6.19;100.00;99283.84;5022492;28;19929;-66
2023/12/31 07:37:12;;;;;;;;;;;;;;;6.25;100.00;99294.09;5039689;28;22736;-69
2023/12/31 07:39:41;;;;;;;;;;;;;;;6.32;100.00;99285.81;5032706;28;20023;-67
2023/12/31 07:42:08;;;;;;;;;;;;;;;6.33;100.00;99284.03;5033553;28;19951;-68
2023/12/31 07:44:36;;;;;;;;;;;;;;;6.34;100.00;99285.75;5023049;28;19921;-70
2023/12/31 07:47:04;;;;;;;;;;;;;;;6.37;100.00;99288.25;5028256;28;19925;-66
2023/12/31 07:49:33;;;;;;;;;;;;;;;6.42;100.00;99278.38;5029580;28;20329;-67
2023/12/31 07:52:00;;;;;;;;;;;;;;;6.44;100.00;99273.03;5030229;28;19925;-68
2023/12/31 07:54:29;;;;;;;;;;;;;;;6.46;100.00;99274.63;5026509;28;20238;-68
2023/12/31 07:56:58;;;;;;;;;;;;;;;6.48;100.00;99264.91;5044552;28;20015;-68
2023/12/31 07:59:26;;;;;;;;;;;;;;;6.49;100.00;99263.97;5030138;28;19929;-67
2023/12/31 08:01:53;;;;;;;;;;;;;;;6.47;100.00;99265.81;5024010;28;19925;-65
2023/12/31 08:04:22;;;;;;;;;;;;;;;6.48;100.00;99259.66;5020376;28;19925;-69
2023/12/31 08:06:50;;;;;;;;;;;;;;;6.48;100.00;99262.28;5027303;28;19929;-68
2023/12/31 08:09:17;;;;;;;;;;;;;;;6.45;100.00;99262.44;5026034;28;19929;-68
2023/12/31 08:11:46;;;;;;;;;;;;;;;6.45;100.00;99265.06;5030557;28;19929;-69
2023/12/31 08:14:14;;;;;;;;;;;;;;;6.45;100.00;99264.22;5017561;28;19928;-68
2023/12/31 08:16:42;;;;;;;;;;;;;;;6.44;100.00;99254.63;5030274;28;19936;-66
2023/12/31 08:19:09;;;;;;;;;;;;;;;6.46;100.00;99256.22;5028772;28;20271;-66
2023/12/31 08:21:37;;;;;;;;;;;;;;;6.54;100.00;99254.09;5031552;28;19921;-67
2023/12/31 08:24:06;;;;;;;;;;;;;;;6.58;100.00;99246.91;5028461;28;20400;-65
2023/12/31 08:26:36;;;;;;;;;;;;;;;6.60;100.00;99253.81;5039320;28;19952;-67
2023/12/31 08:29:05;;;;;;;;;;;;;;;6.63;100.00;99245.75;5035633;28;20479;-65
2023/12/31 08:31:32;;;;;;;;;;;;;;;6.65;100.00;99246.53;5030201;28;19924;-69
2023/12/31 08:34:00;;;;;;;;;;;;;;;6.63;100.00;99245.75;5025045;28;19925;-67
2023/12/31 08:36:32;;;;;;;;;;;;;;;6.61;100.00;99244.97;5026458;28;19964;-68
2023/12/31 08:38:59;;;;;;;;;;;;;;;6.58;100.00;99245.13;5028520;28;19929;-68
2023/12/31 08:41:27;;;;;;;;;;;;;;;6.50;100.00;99236.75;5032515;28;20397;-69
2023/12/31 08:43:55;;;;;;;;;;;;;;;6.42;100.00;99238.91;5025947;28;19944;-69
2023/12/31 08:46:24;;;;;;;;;;;;;;;6.33;100.00;99226.19;5029497;28;19939;-65
2023/12/31 08:48:54;;;;;;;;;;;;;;;6.25;100.00;99226.59;5037631;28;19925;-67
2023/12/31 08:51:22;;;;;;;;;;;;;;;6.23;100.00;99217.06;5034182;28;19950;-68
2023/12/31 08:53:50;;;;;;;;;;;;;;;6.25;100.00;99213.44;5027417;28;19955;-66
2023/12/31 08:56:17;;;;;;;;;;;;;;;6.33;100.00;99213.06;5034224;28;19921;-67
2023/12/31 08:58:45;;;;;;;;;;;;;;;6.40;100.00;99209.22;5029651;28;19925;-67
2023/12/31 09:01:13;;;;;;;;;;;;;;;6.44;100.00;99209.94;5030704;28;19935;-67
2023/12/31 09:03:42;;;;;;;;;;;;;;;6.51;100.00;99201.63;5032613;28;19925;-66
2023/12/31 09:06:10;;;;;;;;;;;;;;;6.60;100.00;99209.09;5031666;28;20285;-68
2023/12/31 09:08:38;;;;;;;;;;;;;;;6.60;100.00;99222.25;5035724;28;19921;-69
2023/12/31 09:11:05;;;;;;;;;;;;;;;6.59;100.00;99210.03;5032367;28;20226;-68
2023/12/31 09:13:33;;;;;;;;;;;;;;;6.63;100.00;99195.75;5034484;28;19925;-64
2023/12/31 09:16:01;;;;;;;;;;;;;;;6.67;100.00;99202.59;5026438;28;19928;-68
2023/12/31 09:18:28;;;;;;;;;;;;;;;6.73;100.00;99206.69;5031496;28;19925;-67
2023/12/31 09:20:57;;;;;;;;;;;;;;;6.76;100.00;99206.56;5028083;28;19933;-67
2023/12/31 09:23:25;;;;;;;;;;;;;;;6.78;100.00;99206.44;5030564;28;19925;-68
2023/12/31 09:25:53;;;;;;;;;;;;;;;6.80;100.00;99196.69;5024980;28;19931;-68
2023/12/31 09:28:21;;;;;;;;;;;;;;;6.83;100.00;99201.81;5037931;28;19935;-67
2023/12/31 09:30:49;;;;;;;;;;;;;;;6.87;100.00;99221.78;5036368;28;19925;-68
2023/12/31 09:33:16;;;;;;;;;;;;;;;6.94;100.00;99215.25;5029154;28;20037;-68
2023/12/31 09:35:44;;;;;;;;;;;;;;;6.99;100.00;99190.44;5019972;28;19924;-68
2023/12/31 09:38:13;;;;;;;;;;;;;;;7.02;100.00;99189.44;5028602;28;20393;-67
2023/12/31 09:40:42;;;;;;;;;;;;;;;6.99;100.00;99181.69;5028579;28;19944;-69
2023/12/31 09:43:09;;;;;;;;;;;;;;;6.95;100.00;99186.25;5026023;28;22150;-67
2023/12/31 09:45:37;;;;;;;;;;;;;;;6.93;100.00;99180.19;5020960;28;19991;-69
2023/12/31 09:48:05;;;;;;;;;;;;;;;6.93;100.00;99174.09;5034783;28;19960;-68
2023/12/31 09:50:34;;;;;;;;;;;;;;;6.88;100.00;99178.75;5038704;28;19924;-67
2023/12/31 09:53:02;;;;;;;;;;;;;;;6.82;100.00;99171.16;5032891;28;19936;-68
2023/12/31 09:55:34;;;;;;;;;;;;;;;6.77;100.00;99167.94;5025883;28;19925;-66
2023/12/31 09:58:04;;;;;;;;;;;;;;;6.75;100.00;99173.28;5034531;28;19939;-68
2023/12/31 10:00:31;;;;;;;;;;;;;;;6.77;100.00;99173.19;5030847;28;19931;-68
2023/12/31 10:02:59;;;;;;;;;;;;;;;6.80;100.00;99173.88;5035010;28;19929;-68
2023/12/31 10:06:38;;;;;;;;;;;;;;;6.86;100.00;99164.81;5107177;27;19924;-68
2023/12/31 10:09:08;;;;;;;;;;;;;;;6.92;100.00;99161.88;5103969;28;19927;-68
2023/12/31 10:11:37;;;;;;;;;;;;;;;6.99;100.00;99163.25;5024952;28;20199;-69
2023/12/31 10:14:05;;;;;;;;;;;;;;;7.02;100.00;99160.47;5029962;28;91915;-67
2023/12/31 10:16:36;;;;;;;;;;;;;;;7.02;100.00;99155.22;5083573;28;19925;-68
2023/12/31 10:24:48;;;;;;;9.18;6.47;;;;;;;6.95;100.00;99138.88;5132071;27;20677;-68
2023/12/31 10:27:16;;;;;;;12.65;6.55;;;;;;;6.95;100.00;99116.97;5026434;28;20704;-67
2023/12/31 10:29:46;;;;;;;8.70;5.22;;;;;;;6.96;100.00;99106.38;5045216;28;20048;-67
2023/12/31 10:32:14;;;;;;;10.57;5.80;;;;;;;7.08;100.00;99098.78;5068125;28;20091;-67
2023/12/31 10:34:44;;;;;;;6.60;4.82;;;;;;;7.16;100.00;99094.78;5066278;28;20049;-67
2023/12/31 10:37:12;;;;;;;5.95;3.80;;;;;;;7.27;100.00;99086.28;5068766;28;20036;-67
2023/12/31 10:39:41;;;;;;;5.13;3.92;;;;;;;7.40;100.00;99082.91;5072589;28;20040;-69
2023/12/31 10:42:10;;;;;;;5.47;3.55;;;;;;;7.54;100.00;99079.53;5074276;28;20064;-67
2023/12/31 10:44:39;;;;;;;5.43;3.33;;;;;;;7.69;100.00;99077.84;5066238;28;20747;-65
2023/12/31 10:47:09;;;;;;;4.80;3.30;;;;;;;7.86;100.00;99059.28;5067657;28;20052;-68
2023/12/31 10:49:46;;;;;;;4.55;3.25;;;;;;;7.98;100.00;99058.56;5075243;28;20098;-67
2023/12/31 10:52:15;;;;;;;6.28;3.30;;;;;;;8.07;100.00;99058.03;5072589;28;20036;-69
2023/12/31 10:54:46;;;;;;;7.13;3.47;;;;;;;8.14;100.00;99044.50;5074916;28;20603;-68
2023/12/31 10:57:16;;;;;;;5.38;3.58;;;;;;;8.24;100.00;99057.03;5067110;28;20102;-68
2023/12/31 10:59:47;;;;;;;4.25;3.28;;;;;;;8.22;100.00;99040.47;5072689;28;20056;-68
2023/12/31 11:02:17;;;;;;;6.13;3.60;;;;;;;8.27;100.00;99040.19;5069434;28;20037;-68
2023/12/31 11:04:46;;;;;;;6.30;3.50;;;;;;;8.38;100.00;99041.28;5070826;28;20049;-67
2023/12/31 11:07:16;;;;;;;4.32;3.28;;;;;;;8.41;100.00;99032.34;5073729;28;20049;-67
2023/12/31 11:09:46;;;;;;;6.03;3.95;;;;;;;8.45;100.00;99031.22;5069428;28;20044;-68
2023/12/31 11:12:17;;;;;;;5.93;3.50;;;;;;;8.48;100.00;99036.31;5070500;28;20045;-68
2023/12/31 11:14:51;;;;;;;5.95;3.50;;;;;;;8.50;100.00;99030.97;5067366;28;20118;-68
2023/12/31 11:17:48;;;;;;;4.20;3.08;;;;;;;8.55;100.00;99028.88;5074667;28;20048;-66
2023/12/31 11:20:36;;;;;;;5.97;2.85;;;;;;;8.57;100.00;99024.34;5075253;28;20071;-67
2023/12/31 11:23:13;;;;;;;6.78;3.28;;;;;;;8.57;100.00;99030.47;5075840;28;21359;-67
2023/12/31 11:25:45;;;;;;;5.78;3.67;;;;;;;8.49;100.00;99089.94;5069874;28;20176;-67
2023/12/31 11:28:14;;;;;;;9.23;3.92;;;;;;;8.16;100.00;99129.63;5071726;28;20060;-67
2023/12/31 11:30:46;;;;;;;7.38;4.57;;;;;;;7.73;100.00;99124.97;5063951;28;20044;-67
2023/12/31 11:33:16;;;;;;;7.38;4.97;;;;;;;7.40;100.00;99103.97;5064967;28;20050;-67
2023/12/31 11:35:46;;;;;;;9.05;5.75;;;;;;;7.21;100.00;99092.75;5045113;28;20051;-68
2023/12/31 11:38:15;;;;;;;8.63;5.72;;;;;;;7.12;100.00;99097.66;5077209;28;20036;-68
2023/12/31 11:40:44;;;;;;;7.88;6.22;;;;;;;7.07;100.00;99091.81;5057861;28;20052;-68
2023/12/31 11:43:14;;;;;;;9.43;5.90;;;;;;;7.15;100.00;99085.19;5059847;28;20072;-68
2023/12/31 11:45:44;;;;;;;6.60;4.07;;;;;;;7.21;100.00;99070.84;5054782;28;20060;-69
2023/12/31 11:48:23;;;;;;;7.78;3.85;;;;;;;7.25;100.00;99075.00;5074775;28;20068;-67
2023/12/31 11:50:52;;;;;;;5.80;3.42;;;;;;;7.34;100.00;99083.25;5048615;28;20108;-69
2023/12/31 11:53:22;;;;;;;5.90;3.30;;;;;;;7.33;100.00;99064.91;5074611;28;20056;-68
2023/12/31 11:55:54;;;;;;;6.55;3.60;;;;;;;7.36;100.00;99065.59;5056240;28;20051;-69
2023/12/31 11:58:27;;;;;;;6.95;4.05;;;;;;;7.36;100.00;99054.22;5079100;28;20385;-68
2023/12/31 12:00:55;;;;;;;6.22;3.95;;;;;;;7.36;100.00;99039.25;5044937;28;20140;-68
2023/12/31 12:03:22;;;;;;;7.78;4.22;;;;;;;7.35;100.00;99034.94;5079019;28;20072;-68
2023/12/31 12:05:51;;;;;;;6.50;4.60;;;;;;;7.39;100.00;99048.78;5045049;28;20048;-69
2023/12/31 12:08:21;;;;;;;7.05;4.90;;;;;;;7.48;100.00;99044.78;5047934;28;20059;-69
2023/12/31 12:10:49;;;;;;;7.13;5.32;;;;;;;7.58;100.00;99044.16;5076013;28;20056;-69
2023/12/31 12:13:18;;;;;;;6.28;4.90;;;;;;;7.59;100.00;99031.84;5063577;28;20109;-70
2023/12/31 12:15:47;;;;;;;9.07;5.50;;;;;;;7.57;100.00;99028.44;5075571;28;20045;-69
2023/12/31 12:18:17;;;;;;;6.57;4.95;;;;;;;7.57;100.00;99021.38;5075727;28;20044;-69
2023/12/31 12:20:46;;;;;;;9.70;5.28;;;;;;;7.63;100.00;99030.75;5077755;28;20047;-69
2023/12/31 12:23:19;;;;;;;9.57;5.78;;;;;;;7.65;100.00;99034.13;5074670;28;20048;-69
2023/12/31 12:25:48;;;;;;;7.22;4.60;;;;;;;7.69;100.00;99020.72;5070436;28;20059;-69
2023/12/31 12:28:17;;;;;;;7.75;5.07;;;;;;;7.69;100.00;99031.25;5060336;28;20163;-68
2023/12/31 12:30:47;;;;;;;6.78;4.63;;;;;;;7.70;100.00;99032.09;5062361;28;20048;-68
2023/12/31 12:33:15;;;;;;;9.18;3.95;;;;;;;7.70;100.00;99026.84;5074119;28;20040;-67
2023/12/31 12:35:45;;;;;;;8.07;4.07;;;;;;;7.70;100.00;99038.22;5049135;28;20076;-68
2023/12/31 12:38:13;;;;;;;6.68;3.45;;;;;;;7.71;100.00;99039.91;5061611;28;20055;-69
2023/12/31 12:40:42;;;;;;;6.65;4.10;;;;;;;7.71;100.00;99026.72;5079775;28;20597;-69
2023/12/31 12:43:13;;;;;;;4.95;3.22;;;;;;;7.73;100.00;99042.44;5057818;28;20052;-68
2023/12/31 12:45:43;;;;;;;6.43;3.85;;;;;;;7.76;100.00;99044.91;5069406;28;20508;-69